Time;durP1;ratioP1;P1;durP2;ratioP2;P2;SDS_P1;SDS_P2;PMS_P1;PMS_P2;Temp;Humidity;BMP_temperature;BMP_pressure;BME280_temperature;BME280_humidity;BME280_pressure;Samples;Min_cycle;Max_cycle;Signal;HPM_P1;HPM_P2
2022/01/12 00:00:49;;;;;;;37.22;17.13;;;;;;;-1.19;100.00;103339.88;4994588;28;20045;-78
2022/01/12 00:03:14;;;;;;;45.38;17.77;;;;;;;-1.02;100.00;103337.13;4999335;28;20561;-78
2022/01/12 00:05:40;;;;;;;40.55;17.63;;;;;;;-1.06;100.00;103334.63;5007738;28;20038;-78
2022/01/12 00:08:07;;;;;;;42.78;17.38;;;;;;;-1.03;100.00;103327.78;5002995;28;20430;-79
2022/01/12 00:10:33;;;;;;;42.03;17.70;;;;;;;-1.00;100.00;103330.31;5010754;28;20034;-78
2022/01/12 00:12:58;;;;;;;42.55;18.25;;;;;;;-0.98;100.00;103330.28;4993821;28;20033;-78
2022/01/12 00:15:24;;;;;;;41.85;17.27;;;;;;;-0.94;100.00;103326.00;5011586;28;20225;-78
2022/01/12 00:17:50;;;;;;;41.72;17.25;;;;;;;-1.04;100.00;103326.09;5023200;28;20044;-78
2022/01/12 00:20:15;;;;;;;37.78;16.80;;;;;;;-1.14;100.00;103328.78;5008699;28;20030;-78
2022/01/12 00:22:41;;;;;;;43.10;17.17;;;;;;;-1.20;100.00;103325.44;4999078;28;20089;-77
2022/01/12 00:33:13;;;;;;;38.38;16.60;;;;;;;-1.44;100.00;103329.13;5008511;28;20084;-78
2022/01/12 00:35:50;;;;;;;37.83;16.15;;;;;;;-1.47;100.00;103338.47;4993701;28;20076;-78
2022/01/12 00:38:19;;;;;;;31.38;14.80;;;;;;;-1.49;100.00;103352.94;4993482;28;20477;-77
2022/01/12 00:40:54;;;;;;;36.45;15.65;;;;;;;-1.51;100.00;103365.66;5007616;28;20038;-78
2022/01/12 00:43:21;;;;;;;29.77;14.73;;;;;;;-1.51;100.00;103363.13;5010553;28;20128;-77
2022/01/12 00:45:47;;;;;;;36.58;15.95;;;;;;;-1.51;100.00;103373.28;5018182;28;20225;-78
2022/01/12 00:48:17;;;;;;;33.88;15.73;;;;;;;-1.51;100.00;103363.13;5007023;28;20042;-78
2022/01/12 00:50:44;;;;;;;35.10;14.57;;;;;;;-1.40;100.00;103351.13;4989941;28;20038;-78
2022/01/12 00:53:09;;;;;;;34.05;15.55;;;;;;;-1.43;100.00;103350.31;4974683;28;20030;-78
2022/01/12 00:55:36;;;;;;;33.22;14.90;;;;;;;-1.49;100.00;103351.22;4998804;28;20570;-78
2022/01/12 00:58:02;;;;;;;38.63;15.73;;;;;;;-1.50;100.00;103346.16;5006635;28;20038;-78
2022/01/12 01:00:29;;;;;;;35.67;15.35;;;;;;;-1.42;100.00;103339.28;5000672;28;20068;-77
2022/01/12 01:02:56;;;;;;;34.70;15.52;;;;;;;-1.35;100.00;103352.81;5010247;28;20037;-78
2022/01/12 01:05:23;;;;;;;42.20;16.70;;;;;;;-1.21;100.00;103351.75;5010042;28;20241;-78
2022/01/12 01:07:49;;;;;;;35.22;15.90;;;;;;;-1.29;100.00;103373.09;5001602;28;20064;-77
2022/01/12 01:10:26;;;;;;;30.50;14.27;;;;;;;-1.38;100.00;103385.03;4999625;28;20382;-78
2022/01/12 01:12:52;;;;;;;30.92;14.73;;;;;;;-1.40;100.00;103393.56;5012315;28;20080;-78
2022/01/12 01:15:27;;;;;;;32.05;15.10;;;;;;;-1.39;100.00;103413.91;4990205;28;20342;-78
2022/01/12 01:26:05;;;;;;;36.58;16.10;;;;;;;-1.21;100.00;103402.69;5010358;28;20429;-78
2022/01/12 01:28:31;;;;;;;34.30;16.83;;;;;;;-1.19;100.00;103407.78;5002440;28;20088;-78
2022/01/12 01:30:56;;;;;;;34.03;17.02;;;;;;;-1.22;100.00;103423.09;5011367;28;20036;-78
2022/01/12 01:33:27;;;;;;;35.95;15.40;;;;;;;-1.29;100.00;103424.84;5010106;28;20124;-78
2022/01/12 01:35:56;;;;;;;34.72;15.63;;;;;;;-1.31;100.00;103423.19;5009628;28;20491;-78
2022/01/12 01:38:24;;;;;;;38.03;16.80;;;;;;;-1.24;100.00;103429.91;4995773;28;20535;-78
2022/01/12 01:40:49;;;;;;;36.33;16.52;;;;;;;-1.02;100.00;103415.22;4998844;28;20133;-79
2022/01/12 01:44:09;;;;;;;35.63;17.33;;;;;;;-1.14;100.00;103425.56;4991287;28;20066;-78
2022/01/12 01:54:18;;;;;;;34.03;15.98;;;;;;;-1.13;100.00;103445.94;5013414;28;20440;-78
2022/01/12 01:56:44;;;;;;;38.05;17.42;;;;;;;-1.20;100.00;103455.31;5010868;28;20038;-77
2022/01/12 01:59:10;;;;;;;39.63;17.17;;;;;;;-1.24;100.00;103452.84;4994035;28;20499;-79
2022/01/12 02:01:40;;;;;;;46.78;18.10;;;;;;;-1.20;100.00;103457.88;5030074;23;20044;-66
2022/01/12 02:04:06;;;;;;;40.13;18.45;;;;;;;-1.05;100.00;103456.88;5046742;28;20474;-66
2022/01/12 02:06:36;;;;;;;39.55;17.55;;;;;;;-1.06;100.00;103447.53;5042954;28;20043;-65
2022/01/12 02:09:02;;;;;;;38.28;16.85;;;;;;;-0.92;100.00;103436.34;5051846;28;20032;-66
2022/01/12 02:11:40;;;;;;;38.80;16.10;;;;;;;-0.91;100.00;103425.31;5043539;28;20563;-65
2022/01/12 02:14:12;;;;;;;36.25;16.50;;;;;;;-0.90;100.00;103419.38;5048437;28;20395;-66
2022/01/12 02:16:50;;;;;;;39.35;15.75;;;;;;;-0.82;100.00;103403.13;5055917;23;20445;-70
2022/01/12 02:19:41;;;;;;;43.03;16.02;;;;;;;-0.74;100.00;103400.47;5030216;28;20121;-70
2022/01/12 02:35:55;;;;;;;33.50;14.18;;;;;;;-0.98;100.00;103391.41;5030661;28;20399;-70
2022/01/12 02:40:53;;;;;;;32.30;14.82;;;;;;;-0.97;100.00;103413.50;5031575;28;20040;-71
2022/01/12 02:50:38;;;;;;;33.03;14.25;;;;;;;-1.04;100.00;103424.59;5029488;28;20084;-70
2022/01/12 02:54:23;;;;;;;32.72;14.15;;;;;;;-1.00;100.00;103416.06;4994540;28;20136;-70
2022/01/12 02:56:50;;;;;;;29.40;13.05;;;;;;;-0.99;100.00;103399.94;5027765;28;20048;-70
2022/01/12 02:59:16;;;;;;;29.02;13.13;;;;;;;-1.03;100.00;103405.94;5027715;28;20029;-71
2022/01/12 03:04:26;;;;;;;28.20;13.45;;;;;;;-1.09;100.00;103401.75;5026497;28;20034;-70
2022/01/12 03:06:52;;;;;;;30.35;13.45;;;;;;;-1.05;100.00;103410.19;5030937;28;20033;-72
2022/01/12 03:09:18;;;;;;;34.33;13.35;;;;;;;-1.11;100.00;103402.59;5027708;28;20510;-70
2022/01/12 03:11:46;;;;;;;29.42;13.57;;;;;;;-1.02;100.00;103389.75;5030156;28;20041;-71
2022/01/12 03:14:14;;;;;;;33.58;13.82;;;;;;;-1.04;100.00;103382.13;5030586;28;20030;-70
2022/01/12 03:16:42;;;;;;;29.50;13.75;;;;;;;-0.93;100.00;103381.19;5028141;28;20029;-71
2022/01/12 03:19:15;;;;;;;34.28;13.68;;;;;;;-0.99;100.00;103380.38;5028772;28;20029;-70
2022/01/12 03:21:40;;;;;;;30.10;13.77;;;;;;;-1.03;100.00;103381.28;5028615;28;20026;-70
2022/01/12 03:24:07;;;;;;;26.50;13.15;;;;;;;-1.07;100.00;103389.84;5030094;28;20041;-70
2022/01/12 03:26:37;;;;;;;31.27;13.25;;;;;;;-1.03;100.00;103398.28;5033843;28;20032;-70
2022/01/12 03:29:04;;;;;;;31.77;13.68;;;;;;;-1.07;100.00;103407.66;5029892;28;20029;-70
2022/01/12 03:31:33;;;;;;;24.02;12.18;;;;;;;-0.87;100.00;103406.56;5025635;28;20402;-71
2022/01/12 03:34:07;;;;;;;27.92;12.95;;;;;;;-0.84;100.00;103409.94;5026300;28;20084;-70
2022/01/12 03:39:10;;;;;;;27.65;12.07;;;;;;;-0.96;100.00;103422.84;5030458;28;20044;-70
2022/01/12 03:41:39;;;;;;;31.05;12.75;;;;;;;-1.01;100.00;103435.59;5042425;28;20152;-70
2022/01/12 03:44:07;;;;;;;26.58;12.40;;;;;;;-1.03;100.00;103431.41;5026508;28;20060;-71
2022/01/12 03:46:44;;;;;;;37.97;14.57;;;;;;;-0.99;100.00;103441.53;5027166;28;20086;-70
2022/01/12 03:49:14;;;;;;;30.80;14.38;;;;;;;-0.99;100.00;103449.16;5029722;28;20029;-72
2022/01/12 03:51:41;;;;;;;32.10;13.80;;;;;;;-0.99;100.00;103449.16;5030197;28;20363;-70
2022/01/12 03:54:07;;;;;;;32.03;13.60;;;;;;;-0.96;100.00;103443.22;5029184;28;20034;-72
2022/01/12 03:56:33;;;;;;;28.77;13.73;;;;;;;-0.98;100.00;103448.31;5026660;28;20044;-70
2022/01/12 03:59:01;;;;;;;28.25;12.38;;;;;;;-0.99;100.00;103443.22;5025794;28;20022;-71
2022/01/12 04:01:26;;;;;;;24.45;12.75;;;;;;;-0.96;100.00;103442.34;5023195;28;20466;-71
2022/01/12 04:04:04;;;;;;;28.35;13.15;;;;;;;-0.95;100.00;103449.16;5028127;28;20044;-71
2022/01/12 04:09:17;;;;;;;30.85;13.95;;;;;;;-0.98;100.00;103452.53;5043187;28;20025;-70
2022/01/12 04:11:42;;;;;;;35.55;13.88;;;;;;;-0.97;100.00;103454.25;5027268;28;20033;-70
2022/01/12 04:14:12;;;;;;;28.08;13.63;;;;;;;-0.89;100.00;103454.16;5025970;28;21933;-72
2022/01/12 04:16:40;;;;;;;34.65;15.95;;;;;;;-0.82;100.00;103453.25;5031648;28;20705;-70
2022/01/12 04:19:09;;;;;;;37.55;15.48;;;;;;;-0.77;100.00;103455.72;5027766;28;20029;-70
2022/01/12 04:21:41;;;;;;;28.48;13.38;;;;;;;-0.84;100.00;103448.16;5032651;28;20033;-72
2022/01/12 04:24:08;;;;;;;31.77;14.73;;;;;;;-0.74;100.00;103442.97;5038701;28;20747;-73
2022/01/12 04:26:33;;;;;;;26.65;13.00;;;;;;;-0.82;100.00;103448.97;5028675;28;20042;-71
2022/01/12 04:29:00;;;;;;;29.25;13.32;;;;;;;-0.84;100.00;103434.59;5030819;28;20041;-71
2022/01/12 04:31:26;;;;;;;32.58;14.63;;;;;;;-0.84;100.00;103437.97;5011387;28;20033;-71
2022/01/12 04:33:52;;;;;;;27.63;13.38;;;;;;;-0.84;100.00;103432.88;5020543;28;20522;-72
2022/01/12 04:36:17;;;;;;;32.92;13.55;;;;;;;-0.79;100.00;103446.41;5028825;28;20154;-70
2022/01/12 04:38:48;;;;;;;40.70;12.88;;;;;;;-0.81;100.00;103444.72;5027574;28;20040;-71
2022/01/12 04:41:14;;;;;;;35.58;13.85;;;;;;;-0.74;100.00;103437.84;5027820;28;20112;-71
2022/01/12 04:43:48;;;;;;;33.63;15.02;;;;;;;-0.70;100.00;103437.78;5021361;28;20665;-71
2022/01/12 04:48:57;;;;;;;33.08;13.52;;;;;;;-0.60;100.00;103447.03;5028927;28;20499;-71
2022/01/12 04:51:23;;;;;;;34.72;12.82;;;;;;;-0.63;100.00;103456.41;5028541;28;20037;-73
2022/01/12 04:53:50;;;;;;;30.75;12.77;;;;;;;-0.67;100.00;103467.50;5029092;28;20083;-70
2022/01/12 04:56:19;;;;;;;29.33;13.20;;;;;;;-0.69;100.00;103459.03;5027505;28;20476;-71
2022/01/12 04:58:45;;;;;;;32.08;13.52;;;;;;;-0.66;100.00;103474.28;5029155;28;20029;-70
2022/01/12 05:01:21;;;;;;;30.50;13.60;;;;;;;-0.67;100.00;103473.44;5026717;28;20068;-70
2022/01/12 05:14:23;;;;;;;27.55;13.32;;;;;;;-0.46;100.00;103471.50;5028564;28;20021;-70
2022/01/12 05:16:49;;;;;;;31.55;14.20;;;;;;;-0.35;100.00;103477.31;5009093;28;20489;-71
2022/01/12 05:19:15;;;;;;;34.78;15.25;;;;;;;-0.44;100.00;103472.31;5023618;28;20048;-70
2022/01/12 05:21:41;;;;;;;33.00;14.07;;;;;;;-0.56;100.00;103473.34;5024884;28;20041;-70
2022/01/12 05:24:07;;;;;;;31.75;14.00;;;;;;;-0.63;100.00;103467.44;5027319;28;20033;-71
2022/01/12 05:26:34;;;;;;;40.97;18.00;;;;;;;-0.61;100.00;103468.28;5025646;28;20032;-72
2022/01/12 05:29:00;;;;;;;34.88;17.63;;;;;;;-0.63;100.00;103469.16;5027160;28;20029;-70
2022/01/12 05:31:27;;;;;;;38.75;19.70;;;;;;;-0.61;100.00;103469.97;5027380;28;20033;-72
2022/01/12 05:33:58;;;;;;;35.55;16.95;;;;;;;-0.61;100.00;103462.34;5026331;28;20075;-71
2022/01/12 05:36:25;;;;;;;34.47;15.40;;;;;;;-0.61;100.00;103472.53;5026230;28;20029;-71
2022/01/12 05:38:53;;;;;;;36.67;15.40;;;;;;;-0.62;100.00;103473.41;5020403;28;20061;-71
2022/01/12 05:41:18;;;;;;;24.73;13.60;;;;;;;-0.60;100.00;103482.72;5025919;28;20033;-71
2022/01/12 05:43:46;;;;;;;31.42;14.50;;;;;;;-0.54;100.00;103476.69;5029137;28;20034;-71
2022/01/12 05:46:18;;;;;;;24.95;13.38;;;;;;;-0.54;100.00;103470.78;5024043;28;20380;-70
2022/01/12 05:51:38;;;;;;;40.65;18.80;;;;;;;-0.54;100.00;103466.50;5024491;28;20102;-71
2022/01/12 05:54:04;;;;;;;33.58;16.88;;;;;;;-0.47;100.00;103468.13;5026172;28;20029;-71
2022/01/12 05:56:30;;;;;;;40.58;16.55;;;;;;;-0.38;100.00;103449.28;5026910;28;20041;-70
2022/01/12 05:58:56;;;;;;;33.75;13.38;;;;;;;-0.33;100.00;103451.81;5027922;28;20100;-71
2022/01/12 06:01:22;;;;;;;32.72;13.25;;;;;;;-0.40;100.00;103454.44;5027046;28;20037;-70
2022/01/12 06:03:50;;;;;;;29.85;12.75;;;;;;;-0.14;100.00;103445.56;5028789;28;20029;-70
2022/01/12 06:06:16;;;;;;;28.40;12.77;;;;;;;-0.22;100.00;103452.50;5031217;28;20403;-71
2022/01/12 06:08:41;;;;;;;30.75;12.48;;;;;;;-0.31;100.00;103458.56;5028545;28;20042;-71
2022/01/12 06:11:08;;;;;;;27.95;12.93;;;;;;;-0.28;100.00;103458.53;5023665;28;20025;-71
2022/01/12 06:13:36;;;;;;;34.15;13.70;;;;;;;-0.15;100.00;103468.53;5022131;28;20021;-70
2022/01/12 06:16:02;;;;;;;27.98;13.27;;;;;;;-0.25;100.00;103462.72;5023104;28;20606;-71
2022/01/12 06:18:30;;;;;;;38.13;15.82;;;;;;;-0.26;100.00;103467.00;5020879;28;20450;-70
2022/01/12 06:20:56;;;;;;;31.20;14.93;;;;;;;-0.22;100.00;103462.69;5026084;28;20128;-70
2022/01/12 06:23:40;;;;;;;33.70;14.38;;;;;;;-0.15;100.00;103471.97;5027519;28;20509;-70
2022/01/12 06:26:06;;;;;;;28.20;12.48;;;;;;;-0.10;99.78;103470.16;5009756;28;20029;-70
2022/01/12 06:31:13;;;;;;;31.55;13.52;;;;;;;-0.25;99.38;103486.53;5027732;28;20116;-71
2022/01/12 06:33:43;;;;;;;28.75;12.32;;;;;;;-0.29;99.66;103489.97;5007307;28;20563;-70
2022/01/12 06:36:12;;;;;;;30.33;12.30;;;;;;;-0.30;100.00;103493.41;5028862;28;20092;-71
2022/01/12 06:38:37;;;;;;;29.45;12.48;;;;;;;-0.32;100.00;103492.59;5026661;28;20037;-71
2022/01/12 06:41:04;;;;;;;35.13;13.32;;;;;;;-0.28;100.00;103483.19;5022785;28;20025;-70
2022/01/12 06:43:30;;;;;;;33.90;13.25;;;;;;;-0.30;100.00;103490.00;5027668;28;20042;-72
2022/01/12 06:45:59;;;;;;;27.15;12.05;;;;;;;-0.30;100.00;103483.22;5024915;28;20025;-71
2022/01/12 06:48:26;;;;;;;26.58;12.63;;;;;;;-0.27;100.00;103490.78;5031726;28;20033;-71
2022/01/12 06:50:52;;;;;;;26.83;12.32;;;;;;;-0.26;100.00;103486.56;5029492;28;20131;-71
2022/01/12 06:53:18;;;;;;;30.75;12.20;;;;;;;-0.25;100.00;103486.53;5028876;28;20037;-71
2022/01/12 06:55:44;;;;;;;59.47;25.40;;;;;;;-0.27;100.00;103482.31;5026889;28;20029;-71
2022/01/12 06:58:10;;;;;;;50.92;19.50;;;;;;;-0.27;100.00;103497.63;5036188;28;20476;-71
2022/01/12 07:00:36;;;;;;;33.75;17.27;;;;;;;-0.26;100.00;103504.41;5030265;28;20252;-72
2022/01/12 07:03:05;;;;;;;36.15;15.38;;;;;;;-0.26;100.00;103518.00;5029256;28;20073;-71
2022/01/12 07:05:37;;;;;;;25.75;13.35;;;;;;;-0.25;100.00;103519.66;5028139;28;20025;-71
2022/01/12 07:08:03;;;;;;;29.90;12.50;;;;;;;-0.17;100.00;103511.09;5034762;28;20502;-71
2022/01/12 07:10:34;;;;;;;29.95;13.10;;;;;;;-0.13;100.00;103525.47;5030344;28;20457;-71
2022/01/12 07:13:13;;;;;;;22.55;11.73;;;;;;;-0.21;100.00;103526.44;5028318;28;20067;-71
2022/01/12 07:15:40;;;;;;;29.95;12.85;;;;;;;-0.20;100.00;103532.38;5033611;28;20036;-71
2022/01/12 07:18:06;;;;;;;25.90;12.85;;;;;;;-0.13;100.00;103535.69;5032064;28;20064;-71
2022/01/12 07:20:32;;;;;;;24.85;13.05;;;;;;;-0.20;100.00;103547.69;5027772;28;20427;-70
2022/01/12 07:22:58;;;;;;;31.40;13.52;;;;;;;-0.21;100.00;103549.41;5025367;28;20045;-70
2022/01/12 07:25:24;;;;;;;25.50;11.30;;;;;;;-0.22;100.00;103563.00;5011063;28;20061;-70
2022/01/12 07:27:50;;;;;;;24.25;12.25;;;;;;;-0.21;100.00;103566.38;5040616;28;20021;-70
2022/01/12 07:30:16;;;;;;;27.38;13.50;;;;;;;-0.21;100.00;103577.47;5025579;28;20033;-70
2022/01/12 07:32:42;;;;;;;22.85;11.90;;;;;;;-0.21;100.00;103577.47;5049305;28;20033;-71
2022/01/12 07:35:11;;;;;;;25.75;13.35;;;;;;;-0.20;100.00;103589.34;5021384;28;20033;-70
2022/01/12 07:37:37;;;;;;;28.42;13.77;;;;;;;-0.16;100.00;103585.03;5029363;28;20108;-71
2022/01/12 07:40:03;;;;;;;30.75;15.23;;;;;;;-0.08;100.00;103584.94;5012183;28;20037;-70
2022/01/12 07:42:28;;;;;;;31.40;14.60;;;;;;;-0.12;100.00;103590.97;5025785;28;20072;-70
2022/01/12 07:44:59;;;;;;;32.88;15.43;;;;;;;-0.11;100.00;103602.88;5028110;28;20025;-71
2022/01/12 07:47:27;;;;;;;27.05;14.60;;;;;;;-0.12;100.00;103601.16;5023352;28;20022;-72
2022/01/12 07:49:54;;;;;;;32.13;14.93;;;;;;;-0.09;100.00;103599.41;5029574;28;20100;-71
2022/01/12 07:52:19;;;;;;;28.90;14.43;;;;;;;-0.07;100.00;103590.03;5027358;28;20139;-72
2022/01/12 07:54:45;;;;;;;53.75;22.52;;;;;;;-0.04;100.00;103596.81;5024196;28;20548;-72
2022/01/12 07:57:11;;;;;;;40.47;18.95;;;;;;;-0.01;100.00;103595.06;5029579;28;20034;-70
2022/01/12 07:59:36;;;;;;;37.50;17.13;;;;;;;0.01;100.00;103595.03;5035245;28;20032;-70
2022/01/12 08:02:02;;;;;;;35.67;15.52;;;;;;;0.09;100.00;103600.88;5028762;28;20541;-70
2022/01/12 08:04:28;;;;;;;42.95;17.25;;;;;;;0.14;100.00;103599.13;5029961;28;20048;-71
2022/01/12 08:06:54;;;;;;;40.95;16.77;;;;;;;0.25;100.00;103599.00;5026754;28;20108;-71
2022/01/12 08:09:19;;;;;;;41.70;17.73;;;;;;;0.25;100.00;103604.09;5023652;28;20029;-71
2022/01/12 08:11:45;;;;;;;41.58;16.73;;;;;;;0.26;100.00;103600.66;5029138;28;20064;-70
2022/01/12 08:14:11;;;;;;;41.40;18.50;;;;;;;0.26;100.00;103599.84;5033772;28;20032;-70
2022/01/12 08:16:37;;;;;;;42.08;16.77;;;;;;;0.26;100.00;103603.22;5043011;22;20037;-68
2022/01/12 08:19:02;;;;;;;38.90;16.50;;;;;;;0.25;100.00;103603.25;5027061;28;20087;-68
2022/01/12 08:21:29;;;;;;;36.65;16.30;;;;;;;0.25;100.00;103611.75;5025064;28;20407;-70
2022/01/12 08:23:55;;;;;;;40.72;16.55;;;;;;;0.32;100.00;103626.13;5027662;28;20534;-68
2022/01/12 08:26:21;;;;;;;49.00;18.30;;;;;;;0.35;100.00;103627.78;5027920;28;20087;-68
2022/01/12 08:28:46;;;;;;;38.60;16.48;;;;;;;0.34;100.00;103636.31;5027876;28;20033;-68
2022/01/12 08:31:12;;;;;;;52.70;18.58;;;;;;;0.42;100.00;103631.94;5026389;28;20465;-68
2022/01/12 08:33:40;;;;;;;43.33;17.80;;;;;;;0.39;100.00;103624.31;5028300;28;20029;-68
2022/01/12 08:36:07;;;;;;;42.75;16.75;;;;;;;0.42;100.00;103631.13;5028242;28;20398;-68
2022/01/12 08:38:33;;;;;;;50.13;18.55;;;;;;;0.41;100.00;103626.88;5027825;28;20037;-68
2022/01/12 08:40:59;;;;;;;52.40;19.75;;;;;;;0.42;100.00;103626.00;5027153;28;20063;-68
2022/01/12 08:43:25;;;;;;;50.28;20.05;;;;;;;0.48;100.00;103625.91;5028748;28;20435;-68
2022/01/12 08:45:52;;;;;;;52.13;19.58;;;;;;;0.50;100.00;103629.28;5021373;28;20040;-68
2022/01/12 08:48:18;;;;;;;51.95;21.15;;;;;;;0.50;100.00;103637.78;5026775;28;20056;-68
2022/01/12 08:50:47;;;;;;;51.28;19.75;;;;;;;0.55;100.00;103646.25;5031890;28;20514;-68
2022/01/12 08:53:13;;;;;;;56.50;22.00;;;;;;;0.66;100.00;103648.66;5028030;28;20034;-68
2022/01/12 08:55:38;;;;;;;60.75;21.65;;;;;;;0.66;100.00;103656.31;5032515;28;20570;-68
2022/01/12 08:58:04;;;;;;;66.32;22.10;;;;;;;0.75;100.00;103663.84;5026694;28;20479;-68
2022/01/12 09:00:30;;;;;;;60.15;21.17;;;;;;;0.70;100.00;103667.34;5025344;28;20043;-68
2022/01/12 09:02:55;;;;;;;52.30;21.83;;;;;;;0.76;100.00;103670.63;5030279;28;20033;-68
2022/01/12 09:05:21;;;;;;;59.92;20.67;;;;;;;0.76;100.00;103678.28;5034231;28;20091;-69
2022/01/12 09:07:47;;;;;;;56.75;21.88;;;;;;;0.77;100.00;103681.69;5022931;28;20248;-68
2022/01/12 09:10:12;;;;;;;55.78;21.27;;;;;;;0.81;100.00;103691.03;5020664;28;20029;-69
2022/01/12 09:12:41;;;;;;;54.83;20.55;;;;;;;0.78;100.00;103689.34;5026388;28;20040;-68
2022/01/12 09:15:09;;;;;;;59.67;20.65;;;;;;;0.78;100.00;103696.16;5026371;28;20112;-68
2022/01/12 09:17:35;;;;;;;54.25;20.83;;;;;;;0.76;100.00;103688.50;5025288;28;20071;-68
2022/01/12 09:20:03;;;;;;;57.08;21.08;;;;;;;0.78;100.00;103686.78;5027502;28;20391;-69
2022/01/12 09:22:28;;;;;;;52.38;20.83;;;;;;;0.79;100.00;103690.16;5027258;28;20498;-68
2022/01/12 09:24:54;;;;;;;60.00;22.92;;;;;;;0.79;100.00;103682.50;5042303;28;20091;-68
2022/01/12 09:27:20;;;;;;;56.97;22.02;;;;;;;0.86;100.00;103691.78;5020996;28;20269;-70
2022/01/12 09:29:49;;;;;;;71.47;24.45;;;;;;;0.85;100.00;103690.09;5021531;28;20211;-69
2022/01/12 09:32:15;;;;;;;65.82;22.48;;;;;;;0.86;100.00;103689.22;5019319;28;20034;-68
2022/01/12 09:34:41;;;;;;;73.10;22.70;;;;;;;0.88;100.00;103686.66;5016457;28;20018;-69
2022/01/12 09:37:07;;;;;;;56.78;21.77;;;;;;;0.87;100.00;103692.63;5019091;28;20040;-68
2022/01/12 09:39:34;;;;;;;63.00;21.80;;;;;;;0.88;100.00;103689.19;5022525;28;20029;-68
2022/01/12 09:42:00;;;;;;;64.38;22.38;;;;;;;0.91;100.00;103697.66;5024553;28;20041;-68
2022/01/12 09:44:34;;;;;;;75.45;23.73;;;;;;;0.99;100.00;103692.44;5027526;28;20040;-68
2022/01/12 09:47:01;;;;;;;80.68;25.40;;;;;;;1.02;100.00;103696.66;5024489;28;20451;-68
2022/01/12 09:49:28;;;;;;;82.07;24.48;;;;;;;1.02;100.00;103694.97;5021098;28;20033;-68
2022/01/12 09:51:55;;;;;;;76.35;25.75;;;;;;;1.09;100.00;103690.59;5024901;28;20049;-69
2022/01/12 09:54:21;;;;;;;80.38;25.20;;;;;;;1.12;100.00;103685.44;5025298;28;20029;-68
2022/01/12 09:56:48;;;;;;;75.18;25.23;;;;;;;1.10;100.00;103680.34;5030090;28;20088;-68
2022/01/12 09:59:14;;;;;;;84.85;26.85;;;;;;;1.15;100.00;103685.41;5019812;28;20230;-68
2022/01/12 10:01:44;;;;;;;85.15;27.60;;;;;;;1.26;100.00;103690.31;5022696;28;20180;-69
2022/01/12 10:04:12;;;;;;;89.35;26.77;;;;;;;1.35;100.00;103695.28;5022846;28;20380;-69
2022/01/12 10:06:45;;;;;;;86.60;25.83;;;;;;;1.32;100.00;103703.88;5025406;28;20089;-69
2022/01/12 10:09:12;;;;;;;;;;;;;;;1.27;100.00;103713.31;5025253;28;20300;-68
2022/01/12 10:11:53;;;;;;;94.30;28.30;;;;;;;1.31;100.00;103709.84;5006130;28;19959;-68
2022/01/12 10:14:25;;;;;;;91.07;29.80;;;;;;;1.48;100.00;103709.56;5024603;28;20029;-68
2022/01/12 10:16:56;;;;;;;99.28;27.70;;;;;;;1.42;100.00;103701.16;5024017;28;20458;-69
2022/01/12 10:19:31;;;;;;;96.95;29.63;;;;;;;1.39;100.00;103702.03;5028602;28;20037;-69
2022/01/12 10:21:59;;;;;;;104.88;31.23;;;;;;;1.47;100.00;103699.34;5033069;28;20048;-68
2022/01/12 10:24:27;;;;;;;100.65;31.60;;;;;;;1.49;100.00;103707.88;5025350;28;20025;-68
2022/01/12 10:26:54;;;;;;;101.72;30.38;;;;;;;1.57;100.00;103713.69;5024029;28;20258;-69
2022/01/12 10:29:26;;;;;;;112.25;32.20;;;;;;;1.63;100.00;103710.19;5011376;28;20056;-68
2022/01/12 10:32:01;;;;;;;99.72;31.88;;;;;;;1.53;100.00;103709.50;5029292;28;20041;-69
2022/01/12 10:34:48;;;;;;;113.38;32.30;;;;;;;1.52;100.00;103715.47;5030638;28;20455;-68
2022/01/12 10:37:19;;;;;;;104.03;32.70;;;;;;;1.54;100.00;103719.72;5021995;28;20543;-69
2022/01/12 10:39:50;;;;;;;121.60;34.80;;;;;;;1.68;100.00;103718.63;5026801;28;20026;-68
2022/01/12 10:42:24;;;;;;;108.93;35.35;;;;;;;1.57;100.00;103721.34;5031027;28;20105;-69
2022/01/12 10:44:53;;;;;;;114.13;36.65;;;;;;;1.58;100.00;103720.47;5022142;28;20063;-68
2022/01/12 10:47:21;;;;;;;131.80;38.53;;;;;;;1.57;100.00;103716.25;5026922;28;20057;-68
2022/01/12 10:50:00;;;;;;;110.35;35.95;;;;;;;1.57;100.00;103723.06;5030963;28;20059;-68
2022/01/12 10:52:28;;;;;;;129.05;37.55;;;;;;;1.63;100.00;103720.41;5019400;28;20030;-68
2022/01/12 10:55:17;;;;;;;131.18;37.50;;;;;;;1.61;100.00;103722.16;5026880;28;20503;-68
2022/01/12 10:57:45;;;;;;;118.18;37.22;;;;;;;1.65;100.00;103713.56;5024162;28;20029;-69
2022/01/12 11:00:23;;;;;;;114.63;38.13;;;;;;;1.66;100.00;103716.09;5028880;28;20700;-68
2022/01/12 11:02:51;;;;;;;118.15;37.22;;;;;;;1.66;100.00;103712.69;5028765;28;20041;-68
2022/01/12 11:05:20;;;;;;;135.80;36.65;;;;;;;1.75;100.00;103721.03;5028177;28;20030;-68
2022/01/12 11:07:47;;;;;;;127.63;36.15;;;;;;;1.81;100.00;103721.78;5038109;28;20137;-69
2022/01/12 11:10:12;;;;;;;104.68;33.55;;;;;;;1.74;100.00;103713.38;5018555;28;20811;-68
2022/01/12 11:12:40;;;;;;;116.75;37.17;;;;;;;1.71;100.00;103718.53;5020953;28;20025;-69
2022/01/12 11:15:13;;;;;;;113.47;33.97;;;;;;;1.85;100.00;103716.59;5022295;28;20061;-69
2022/01/12 11:17:42;;;;;;;119.15;36.00;;;;;;;1.81;100.00;103714.09;5027227;28;20051;-68
2022/01/12 11:20:21;;;;;;;118.45;33.63;;;;;;;1.79;100.00;103714.16;5026939;28;20026;-68
2022/01/12 11:22:53;;;;;;;112.82;30.67;;;;;;;1.85;100.00;103713.22;5027049;28;20029;-68
2022/01/12 11:25:23;;;;;;;112.63;34.87;;;;;;;1.87;100.00;103725.09;5028536;28;20561;-69
2022/01/12 11:28:14;;;;;;;116.18;34.35;;;;;;;1.99;100.00;103718.06;5026443;28;20036;-68
2022/01/12 11:31:01;;;;;;;121.80;33.80;;;;;;;1.98;100.00;103731.72;5041543;28;20500;-68
2022/01/12 11:33:29;;;;;;;120.78;36.97;;;;;;;2.05;100.00;103740.97;5044703;28;20037;-68
2022/01/12 11:35:59;;;;;;;112.65;33.50;;;;;;;2.11;100.00;103740.84;5019778;28;20022;-68
2022/01/12 11:38:36;;;;;;;116.88;33.60;;;;;;;2.10;100.00;103749.41;5021739;28;20038;-68
2022/01/12 11:41:13;;;;;;;116.15;34.72;;;;;;;2.09;100.00;103738.34;5023137;28;20048;-69
2022/01/12 11:43:44;;;;;;;121.00;35.97;;;;;;;2.13;100.00;103745.09;5023248;28;20118;-69
2022/01/12 11:46:13;;;;;;;115.72;33.85;;;;;;;2.05;100.00;103735.84;5024473;28;20033;-69
2022/01/12 11:48:52;;;;;;;110.22;34.42;;;;;;;2.06;100.00;103735.00;5024737;28;20617;-68
2022/01/12 11:51:40;;;;;;;121.05;33.67;;;;;;;2.06;100.00;103735.84;5041931;28;20037;-68
2022/01/12 11:54:18;;;;;;;121.35;33.13;;;;;;;2.02;100.00;103734.22;5023106;28;20115;-68
2022/01/12 11:56:56;;;;;;;120.28;35.63;;;;;;;1.99;100.00;103736.81;5039072;28;20508;-69
2022/01/12 11:59:24;;;;;;;122.75;34.00;;;;;;;2.08;100.00;103736.63;5026864;28;20446;-69
2022/01/12 12:01:53;;;;;;;103.82;31.23;;;;;;;2.07;100.00;103734.09;5041088;28;20620;-68
2022/01/12 12:04:28;;;;;;;115.60;34.28;;;;;;;2.17;100.00;103733.06;5026194;28;20026;-68
2022/01/12 12:07:12;;;;;;;107.88;34.47;;;;;;;2.11;100.00;103728.91;5025038;28;20132;-68
2022/01/12 12:09:44;;;;;;;102.13;31.50;;;;;;;2.18;100.00;103721.94;5024614;28;20049;-69
2022/01/12 12:12:20;;;;;;;102.30;31.63;;;;;;;2.13;100.00;103710.97;5024902;28;20044;-68
2022/01/12 12:14:48;;;;;;;113.20;34.58;;;;;;;2.14;100.00;103710.91;5026742;28;20025;-68
2022/01/12 12:17:18;;;;;;;101.25;32.15;;;;;;;2.24;100.00;103713.28;5024473;28;20434;-68
2022/01/12 12:19:46;;;;;;;104.63;33.30;;;;;;;2.24;100.00;103710.72;5021467;28;20040;-68
2022/01/12 12:22:18;;;;;;;117.80;33.50;;;;;;;2.25;100.00;103710.72;5020341;28;20036;-69
2022/01/12 12:24:47;;;;;;;111.15;33.50;;;;;;;2.30;100.00;103715.75;5025338;28;20191;-68
2022/01/12 12:27:19;;;;;;;93.95;32.35;;;;;;;2.39;100.00;103709.59;5021561;28;20037;-68